Holly Springs, MS (38635)

11:59 PM CDT on March 29, 2015 (GMT -0500)
Bett | | Change Station
CLOSE
Current Station
Personal Weather Station
Location: Coldwater, MS
Elevation: 367 ft
Nearby Weather Stations

Elev 367 ft 34.69 °N, 89.76 °W | Updated 50 seconds ago

Mostly Cloudy
Mostly Cloudy
62.2 °F
Feels Like 62.2 °F
N
1.0
Wind Variable Wind from WSW
Gusts 3.0 mph

Today
High -- | Low -- °F
--% Chance of Precip.
Yesterday
High -- | Low -- °F
Precip. -- in
6:49 AM 7:16 PM
Waxing Gibbous, 77% visible
Pressure 30.06 in
Visibility 10.0 miles
Clouds Few 6000 ft
Dew Point 54 °F
Humidity 74%
Rainfall 0.00 in
Snow Depth Not available.
UV 0 out of 12
Pollen 10.20 out of 12
Air Quality Not available.
Flu Activity Not available.
METAR KUOX 300415Z AUTO 17005KT 10SM FEW060 16/09 A3006 RMK AO2 LTG DSNT W-NE PWINO PNO

More Conditions Fewer Conditions

Pressure 30.06 in
Visibility 10.0 miles
Clouds Few 6000 ft
Dew Point 54 °F
Humidity 74%
Rainfall 0.00 in
Snow Depth Not available.
UV 0 out of 12
Pollen 10.20 out of 12
Air Quality Not available.
Flu Activity Not available.
METAR KUOX 300415Z AUTO 17005KT 10SM FEW060 16/09 A3006 RMK AO2 LTG DSNT W-NE PWINO PNO

More Conditions Fewer Conditions

10-Day Weather Forecast

Almanac

Astronomy

Mar. 29, 2015 Rise Set
Actual Time
Civil Twilight
Nautical Twilight
Astronomical Twilight
Moon
Length of Visible Light
Length of Day
Tomorrow will be .
, % of the Moon is Illuminated

Today's Extremes

State Highs State Lows

Community

WunderPhotos

Upload Photos

1,809,436 photos uploaded!

WunderBlogs® & News

Nearby

Air Quality

  Air Quality AQ Index Pollutant
Not available.

Snow Depth

Station Depth Elevation

Earthquake Activity

City Distance Mag. Time & Date
Minimum magnitude displayed is 2.5.

Coastal Water Temperatures

Place Temperature

Stations

Nearby Weather Stations

Station Location Temp. Windchill Dew Point Humidity Wind Precip. Elev Updated Type